sensor_id;sensor_type;location;lat;lon;timestamp;temperature;humidity
49413;DHT22;35493;50.276;9.372;2024-02-15T00:02:29;10.40;94.30
49413;DHT22;35493;50.276;9.372;2024-02-15T00:05:03;10.40;94.30
49413;DHT22;35493;50.276;9.372;2024-02-15T00:07:38;10.40;94.20
49413;DHT22;35493;50.276;9.372;2024-02-15T00:10:11;10.40;94.30
49413;DHT22;35493;50.276;9.372;2024-02-15T00:12:39;10.40;94.20
49413;DHT22;35493;50.276;9.372;2024-02-15T00:15:12;10.50;94.30
49413;DHT22;35493;50.276;9.372;2024-02-15T00:17:45;10.40;94.30
49413;DHT22;35493;50.276;9.372;2024-02-15T00:20:19;10.50;94.30
49413;DHT22;35493;50.276;9.372;2024-02-15T00:22:52;10.40;94.20
49413;DHT22;35493;50.276;9.372;2024-02-15T00:25:25;10.50;94.30
49413;DHT22;35493;50.276;9.372;2024-02-15T00:28:00;10.50;94.30
49413;DHT22;35493;50.276;9.372;2024-02-15T00:30:34;10.50;94.20
49413;DHT22;35493;50.276;9.372;2024-02-15T00:33:08;10.50;94.20
49413;DHT22;35493;50.276;9.372;2024-02-15T00:35:42;10.40;94.10
49413;DHT22;35493;50.276;9.372;2024-02-15T00:38:09;10.50;94.30
49413;DHT22;35493;50.276;9.372;2024-02-15T00:40:42;10.50;94.30
49413;DHT22;35493;50.276;9.372;2024-02-15T00:43:16;10.40;94.20
49413;DHT22;35493;50.276;9.372;2024-02-15T00:45:50;10.50;94.30
49413;DHT22;35493;50.276;9.372;2024-02-15T00:48:23;10.50;94.30
49413;DHT22;35493;50.276;9.372;2024-02-15T00:51:35;10.50;94.40
49413;DHT22;35493;50.276;9.372;2024-02-15T00:54:08;10.50;94.30
49413;DHT22;35493;50.276;9.372;2024-02-15T00:56:41;10.50;94.40
49413;DHT22;35493;50.276;9.372;2024-02-15T00:59:15;10.50;94.30
49413;DHT22;35493;50.276;9.372;2024-02-15T01:01:49;10.50;94.30
49413;DHT22;35493;50.276;9.372;2024-02-15T01:04:22;10.50;94.30
49413;DHT22;35493;50.276;9.372;2024-02-15T01:06:55;10.50;94.40
49413;DHT22;35493;50.276;9.372;2024-02-15T01:09:29;10.50;94.30
49413;DHT22;35493;50.276;9.372;2024-02-15T01:12:02;10.50;94.30
49413;DHT22;35493;50.276;9.372;2024-02-15T01:14:37;10.50;94.30
49413;DHT22;35493;50.276;9.372;2024-02-15T01:17:11;10.50;94.30
49413;DHT22;35493;50.276;9.372;2024-02-15T01:19:44;10.50;94.30
49413;DHT22;35493;50.276;9.372;2024-02-15T01:22:17;10.40;94.20
49413;DHT22;35493;50.276;9.372;2024-02-15T01:24:50;10.50;94.30
49413;DHT22;35493;50.276;9.372;2024-02-15T01:27:23;10.50;94.30
49413;DHT22;35493;50.276;9.372;2024-02-15T01:29:57;10.50;94.30
49413;DHT22;35493;50.276;9.372;2024-02-15T01:32:30;10.40;94.20
49413;DHT22;35493;50.276;9.372;2024-02-15T01:35:04;10.40;94.20
49413;DHT22;35493;50.276;9.372;2024-02-15T01:37:38;10.50;94.30
49413;DHT22;35493;50.276;9.372;2024-02-15T01:40:11;10.50;94.30
49413;DHT22;35493;50.276;9.372;2024-02-15T01:42:44;10.50;94.30
49413;DHT22;35493;50.276;9.372;2024-02-15T01:45:19;10.40;94.30
49413;DHT22;35493;50.276;9.372;2024-02-15T01:47:53;10.50;94.30
49413;DHT22;35493;50.276;9.372;2024-02-15T01:50:27;10.50;94.20
49413;DHT22;35493;50.276;9.372;2024-02-15T01:53:00;10.40;94.10
49413;DHT22;35493;50.276;9.372;2024-02-15T01:55:34;10.40;94.00
49413;DHT22;35493;50.276;9.372;2024-02-15T01:58:07;10.50;94.10
49413;DHT22;35493;50.276;9.372;2024-02-15T02:00:42;10.50;94.10
49413;DHT22;35493;50.276;9.372;2024-02-15T02:03:15;10.40;94.00
49413;DHT22;35493;50.276;9.372;2024-02-15T02:05:49;10.50;94.10
49413;DHT22;35493;50.276;9.372;2024-02-15T02:08:22;10.40;94.00
49413;DHT22;35493;50.276;9.372;2024-02-15T02:10:55;10.50;94.00
49413;DHT22;35493;50.276;9.372;2024-02-15T02:13:22;10.40;94.00
49413;DHT22;35493;50.276;9.372;2024-02-15T02:15:57;10.40;94.00
49413;DHT22;35493;50.276;9.372;2024-02-15T02:18:31;10.50;94.00
49413;DHT22;35493;50.276;9.372;2024-02-15T02:20:58;10.40;94.00
49413;DHT22;35493;50.276;9.372;2024-02-15T02:23:31;10.40;94.00
49413;DHT22;35493;50.276;9.372;2024-02-15T02:26:12;10.40;94.00
49413;DHT22;35493;50.276;9.372;2024-02-15T02:28:46;10.40;93.90
49413;DHT22;35493;50.276;9.372;2024-02-15T02:31:19;10.40;93.90
49413;DHT22;35493;50.276;9.372;2024-02-15T02:33:54;10.40;94.00
49413;DHT22;35493;50.276;9.372;2024-02-15T02:36:30;10.50;94.00
49413;DHT22;35493;50.276;9.372;2024-02-15T02:39:03;10.40;93.90
49413;DHT22;35493;50.276;9.372;2024-02-15T02:41:37;10.40;93.90
49413;DHT22;35493;50.276;9.372;2024-02-15T02:44:11;10.40;93.80
49413;DHT22;35493;50.276;9.372;2024-02-15T02:46:44;10.40;93.80
49413;DHT22;35493;50.276;9.372;2024-02-15T02:49:17;10.40;93.90
49413;DHT22;35493;50.276;9.372;2024-02-15T02:51:50;10.40;93.90
49413;DHT22;35493;50.276;9.372;2024-02-15T02:54:23;10.40;93.80
49413;DHT22;35493;50.276;9.372;2024-02-15T02:56:57;10.40;93.90
49413;DHT22;35493;50.276;9.372;2024-02-15T02:59:31;10.40;93.90
49413;DHT22;35493;50.276;9.372;2024-02-15T03:02:05;10.40;93.80
49413;DHT22;35493;50.276;9.372;2024-02-15T03:04:40;10.40;93.90
49413;DHT22;35493;50.276;9.372;2024-02-15T03:07:13;10.40;93.80
49413;DHT22;35493;50.276;9.372;2024-02-15T03:09:49;10.40;93.80
49413;DHT22;35493;50.276;9.372;2024-02-15T03:12:24;10.40;93.80
49413;DHT22;35493;50.276;9.372;2024-02-15T03:14:58;10.40;93.90
49413;DHT22;35493;50.276;9.372;2024-02-15T03:17:31;10.40;93.90
49413;DHT22;35493;50.276;9.372;2024-02-15T03:20:04;10.40;93.80
49413;DHT22;35493;50.276;9.372;2024-02-15T03:22:42;10.40;93.80
49413;DHT22;35493;50.276;9.372;2024-02-15T03:25:15;10.30;93.90
49413;DHT22;35493;50.276;9.372;2024-02-15T03:27:50;10.30;93.90
49413;DHT22;35493;50.276;9.372;2024-02-15T03:30:24;10.30;93.80
49413;DHT22;35493;50.276;9.372;2024-02-15T03:32:58;10.30;93.90
49413;DHT22;35493;50.276;9.372;2024-02-15T03:35:31;10.30;93.90
49413;DHT22;35493;50.276;9.372;2024-02-15T03:38:04;10.30;93.90
49413;DHT22;35493;50.276;9.372;2024-02-15T03:40:38;10.30;93.90
49413;DHT22;35493;50.276;9.372;2024-02-15T03:43:13;10.30;93.80
49413;DHT22;35493;50.276;9.372;2024-02-15T03:45:47;10.30;93.90
49413;DHT22;35493;50.276;9.372;2024-02-15T03:48:20;10.40;93.80
49413;DHT22;35493;50.276;9.372;2024-02-15T03:50:53;10.30;93.80
49413;DHT22;35493;50.276;9.372;2024-02-15T03:53:26;10.40;93.90
49413;DHT22;35493;50.276;9.372;2024-02-15T03:56:03;10.30;93.80
49413;DHT22;35493;50.276;9.372;2024-02-15T03:58:38;10.40;93.90
49413;DHT22;35493;50.276;9.372;2024-02-15T04:01:12;10.30;93.70
49413;DHT22;35493;50.276;9.372;2024-02-15T04:03:47;10.40;93.80
49413;DHT22;35493;50.276;9.372;2024-02-15T04:06:21;10.40;93.70
49413;DHT22;35493;50.276;9.372;2024-02-15T04:08:57;10.30;93.70
49413;DHT22;35493;50.276;9.372;2024-02-15T04:11:30;10.40;93.80
49413;DHT22;35493;50.276;9.372;2024-02-15T04:14:06;10.40;93.90
49413;DHT22;35493;50.276;9.372;2024-02-15T04:16:40;10.40;93.80
49413;DHT22;35493;50.276;9.372;2024-02-15T04:19:13;10.30;93.90
49413;DHT22;35493;50.276;9.372;2024-02-15T04:21:46;10.30;93.90
49413;DHT22;35493;50.276;9.372;2024-02-15T04:24:19;10.30;94.00
49413;DHT22;35493;50.276;9.372;2024-02-15T04:26:53;10.30;94.00
49413;DHT22;35493;50.276;9.372;2024-02-15T04:29:27;10.30;93.90
49413;DHT22;35493;50.276;9.372;2024-02-15T04:32:01;10.30;93.90
49413;DHT22;35493;50.276;9.372;2024-02-15T04:34:35;10.30;93.90
49413;DHT22;35493;50.276;9.372;2024-02-15T04:37:15;10.30;93.80
49413;DHT22;35493;50.276;9.372;2024-02-15T04:39:48;10.30;93.90
49413;DHT22;35493;50.276;9.372;2024-02-15T04:42:21;10.30;93.80
49413;DHT22;35493;50.276;9.372;2024-02-15T04:44:58;10.30;93.90
49413;DHT22;35493;50.276;9.372;2024-02-15T04:47:32;10.30;93.90
49413;DHT22;35493;50.276;9.372;2024-02-15T04:53:16;10.20;93.80
49413;DHT22;35493;50.276;9.372;2024-02-15T04:55:49;10.30;93.80
49413;DHT22;35493;50.276;9.372;2024-02-15T04:58:22;10.20;93.80
49413;DHT22;35493;50.276;9.372;2024-02-15T05:00:57;10.20;93.90
49413;DHT22;35493;50.276;9.372;2024-02-15T05:03:31;10.20;93.90
49413;DHT22;35493;50.276;9.372;2024-02-15T05:06:06;10.20;93.90
49413;DHT22;35493;50.276;9.372;2024-02-15T05:08:40;10.20;93.90
49413;DHT22;35493;50.276;9.372;2024-02-15T05:11:15;10.20;93.90
49413;DHT22;35493;50.276;9.372;2024-02-15T05:13:49;10.20;93.80
49413;DHT22;35493;50.276;9.372;2024-02-15T05:16:23;10.20;93.80
49413;DHT22;35493;50.276;9.372;2024-02-15T05:18:50;10.20;93.80
49413;DHT22;35493;50.276;9.372;2024-02-15T05:21:23;10.20;93.80
49413;DHT22;35493;50.276;9.372;2024-02-15T05:23:56;10.20;93.80
49413;DHT22;35493;50.276;9.372;2024-02-15T05:26:29;10.20;93.80
49413;DHT22;35493;50.276;9.372;2024-02-15T05:29:02;10.10;93.80
49413;DHT22;35493;50.276;9.372;2024-02-15T05:31:37;10.10;93.90
49413;DHT22;35493;50.276;9.372;2024-02-15T05:34:11;10.10;93.80
49413;DHT22;35493;50.276;9.372;2024-02-15T05:36:45;10.10;93.80
49413;DHT22;35493;50.276;9.372;2024-02-15T05:39:20;10.20;93.80
49413;DHT22;35493;50.276;9.372;2024-02-15T05:41:54;10.10;93.80
49413;DHT22;35493;50.276;9.372;2024-02-15T05:44:32;10.10;93.80
49413;DHT22;35493;50.276;9.372;2024-02-15T05:47:07;10.10;93.80
49413;DHT22;35493;50.276;9.372;2024-02-15T05:49:41;10.10;93.80
49413;DHT22;35493;50.276;9.372;2024-02-15T05:52:15;10.20;93.80
49413;DHT22;35493;50.276;9.372;2024-02-15T05:54:50;10.20;93.80
49413;DHT22;35493;50.276;9.372;2024-02-15T05:57:23;10.10;93.80
49413;DHT22;35493;50.276;9.372;2024-02-15T05:59:56;10.10;93.80
49413;DHT22;35493;50.276;9.372;2024-02-15T06:02:35;10.10;93.70
49413;DHT22;35493;50.276;9.372;2024-02-15T06:05:08;10.10;93.70
49413;DHT22;35493;50.276;9.372;2024-02-15T06:07:43;10.10;93.70
49413;DHT22;35493;50.276;9.372;2024-02-15T06:10:17;10.10;93.60
49413;DHT22;35493;50.276;9.372;2024-02-15T06:12:50;10.10;93.70
49413;DHT22;35493;50.276;9.372;2024-02-15T06:15:24;10.10;93.70
49413;DHT22;35493;50.276;9.372;2024-02-15T06:17:59;10.10;93.70
49413;DHT22;35493;50.276;9.372;2024-02-15T06:20:33;10.10;93.60
49413;DHT22;35493;50.276;9.372;2024-02-15T06:23:07;10.10;93.70
49413;DHT22;35493;50.276;9.372;2024-02-15T06:25:40;10.10;93.70
49413;DHT22;35493;50.276;9.372;2024-02-15T06:28:14;10.10;93.70
49413;DHT22;35493;50.276;9.372;2024-02-15T06:31:13;10.10;93.60
49413;DHT22;35493;50.276;9.372;2024-02-15T06:34:04;10.10;93.70
49413;DHT22;35493;50.276;9.372;2024-02-15T06:36:56;10.10;93.70
49413;DHT22;35493;50.276;9.372;2024-02-15T06:39:46;10.10;93.70
49413;DHT22;35493;50.276;9.372;2024-02-15T06:45:28;10.10;93.70
49413;DHT22;35493;50.276;9.372;2024-02-15T06:48:03;10.10;93.70
49413;DHT22;35493;50.276;9.372;2024-02-15T06:50:40;10.10;93.70
49413;DHT22;35493;50.276;9.372;2024-02-15T06:53:14;10.10;93.70
49413;DHT22;35493;50.276;9.372;2024-02-15T06:55:47;10.10;93.70
49413;DHT22;35493;50.276;9.372;2024-02-15T06:58:21;10.10;93.70
49413;DHT22;35493;50.276;9.372;2024-02-15T07:00:54;10.10;93.70
49413;DHT22;35493;50.276;9.372;2024-02-15T07:03:27;10.10;93.70
49413;DHT22;35493;50.276;9.372;2024-02-15T07:06:03;10.10;93.70
49413;DHT22;35493;50.276;9.372;2024-02-15T07:08:36;10.10;93.80
49413;DHT22;35493;50.276;9.372;2024-02-15T07:11:09;10.10;93.60
49413;DHT22;35493;50.276;9.372;2024-02-15T07:13:42;10.10;93.70
49413;DHT22;35493;50.276;9.372;2024-02-15T07:16:15;10.10;93.70
49413;DHT22;35493;50.276;9.372;2024-02-15T07:18:49;10.10;93.70
49413;DHT22;35493;50.276;9.372;2024-02-15T07:21:23;10.10;93.70
49413;DHT22;35493;50.276;9.372;2024-02-15T07:24:19;10.10;93.80
49413;DHT22;35493;50.276;9.372;2024-02-15T07:26:58;10.20;93.70
49413;DHT22;35493;50.276;9.372;2024-02-15T07:29:31;10.20;93.70
49413;DHT22;35493;50.276;9.372;2024-02-15T07:32:04;10.20;93.70
49413;DHT22;35493;50.276;9.372;2024-02-15T07:34:38;10.20;93.60
49413;DHT22;35493;50.276;9.372;2024-02-15T07:37:14;10.20;93.40
49413;DHT22;35493;50.276;9.372;2024-02-15T07:39:48;10.30;93.50
49413;DHT22;35493;50.276;9.372;2024-02-15T07:42:21;10.40;93.60
49413;DHT22;35493;50.276;9.372;2024-02-15T07:44:57;10.40;93.70
49413;DHT22;35493;50.276;9.372;2024-02-15T07:47:30;10.40;93.70
49413;DHT22;35493;50.276;9.372;2024-02-15T07:50:03;10.40;93.60
49413;DHT22;35493;50.276;9.372;2024-02-15T07:55:47;10.50;93.70
49413;DHT22;35493;50.276;9.372;2024-02-15T07:58:34;10.40;93.50
49413;DHT22;35493;50.276;9.372;2024-02-15T08:01:07;10.50;93.60
49413;DHT22;35493;50.276;9.372;2024-02-15T08:03:41;10.60;93.70
49413;DHT22;35493;50.276;9.372;2024-02-15T08:06:17;10.60;93.50
49413;DHT22;35493;50.276;9.372;2024-02-15T08:08:50;10.60;93.50
49413;DHT22;35493;50.276;9.372;2024-02-15T08:11:31;10.60;93.50
49413;DHT22;35493;50.276;9.372;2024-02-15T08:14:05;10.60;93.60
49413;DHT22;35493;50.276;9.372;2024-02-15T08:16:41;10.70;93.60
49413;DHT22;35493;50.276;9.372;2024-02-15T08:19:14;10.70;93.70
49413;DHT22;35493;50.276;9.372;2024-02-15T08:21:47;10.70;93.60
49413;DHT22;35493;50.276;9.372;2024-02-15T08:24:22;10.70;93.60
49413;DHT22;35493;50.276;9.372;2024-02-15T08:26:58;10.80;93.70
49413;DHT22;35493;50.276;9.372;2024-02-15T08:29:31;10.90;93.70
49413;DHT22;35493;50.276;9.372;2024-02-15T08:32:05;10.90;93.70
49413;DHT22;35493;50.276;9.372;2024-02-15T08:34:39;10.90;93.70
49413;DHT22;35493;50.276;9.372;2024-02-15T08:37:12;11.00;93.80
49413;DHT22;35493;50.276;9.372;2024-02-15T08:39:45;11.00;93.60
49413;DHT22;35493;50.276;9.372;2024-02-15T08:42:26;11.10;93.70
49413;DHT22;35493;50.276;9.372;2024-02-15T08:45:00;11.10;93.80
49413;DHT22;35493;50.276;9.372;2024-02-15T08:47:35;11.20;93.60
49413;DHT22;35493;50.276;9.372;2024-02-15T08:50:09;11.20;93.70
49413;DHT22;35493;50.276;9.372;2024-02-15T08:52:43;11.20;93.70
49413;DHT22;35493;50.276;9.372;2024-02-15T08:55:16;11.20;93.70
49413;DHT22;35493;50.276;9.372;2024-02-15T08:57:54;11.20;93.60
49413;DHT22;35493;50.276;9.372;2024-02-15T09:00:27;11.20;93.60
49413;DHT22;35493;50.276;9.372;2024-02-15T09:03:07;11.30;93.70
49413;DHT22;35493;50.276;9.372;2024-02-15T09:05:40;11.30;93.60
49413;DHT22;35493;50.276;9.372;2024-02-15T09:08:15;11.40;93.60
49413;DHT22;35493;50.276;9.372;2024-02-15T09:10:52;11.40;93.40
49413;DHT22;35493;50.276;9.372;2024-02-15T09:13:30;11.50;93.30
49413;DHT22;35493;50.276;9.372;2024-02-15T09:16:35;11.50;93.30
49413;DHT22;35493;50.276;9.372;2024-02-15T09:19:08;11.60;93.10
49413;DHT22;35493;50.276;9.372;2024-02-15T09:21:41;11.70;93.20
49413;DHT22;35493;50.276;9.372;2024-02-15T09:24:14;11.70;93.20
49413;DHT22;35493;50.276;9.372;2024-02-15T09:26:48;11.80;93.10
49413;DHT22;35493;50.276;9.372;2024-02-15T09:29:23;11.90;93.10
49413;DHT22;35493;50.276;9.372;2024-02-15T09:31:56;11.90;93.20
49413;DHT22;35493;50.276;9.372;2024-02-15T09:34:29;12.00;93.00
49413;DHT22;35493;50.276;9.372;2024-02-15T09:37:04;12.00;92.90
49413;DHT22;35493;50.276;9.372;2024-02-15T09:39:37;12.10;92.80
49413;DHT22;35493;50.276;9.372;2024-02-15T09:42:10;12.20;92.70
49413;DHT22;35493;50.276;9.372;2024-02-15T09:44:45;12.20;92.60
49413;DHT22;35493;50.276;9.372;2024-02-15T09:47:18;12.30;92.50
49413;DHT22;35493;50.276;9.372;2024-02-15T09:49:52;12.40;92.40
49413;DHT22;35493;50.276;9.372;2024-02-15T09:52:25;12.40;92.40
49413;DHT22;35493;50.276;9.372;2024-02-15T09:54:58;12.40;92.30
49413;DHT22;35493;50.276;9.372;2024-02-15T09:57:33;12.50;92.30
49413;DHT22;35493;50.276;9.372;2024-02-15T10:00:08;12.60;92.40
49413;DHT22;35493;50.276;9.372;2024-02-15T10:02:46;12.60;92.20
49413;DHT22;35493;50.276;9.372;2024-02-15T10:05:20;12.60;92.20
49413;DHT22;35493;50.276;9.372;2024-02-15T10:07:54;12.60;92.10
49413;DHT22;35493;50.276;9.372;2024-02-15T10:10:27;12.60;91.70
49413;DHT22;35493;50.276;9.372;2024-02-15T10:13:08;12.60;91.70
49413;DHT22;35493;50.276;9.372;2024-02-15T10:15:53;12.70;91.60
49413;DHT22;35493;50.276;9.372;2024-02-15T10:18:26;12.90;91.50
49413;DHT22;35493;50.276;9.372;2024-02-15T10:21:01;12.90;91.50
49413;DHT22;35493;50.276;9.372;2024-02-15T10:23:34;13.00;91.50
49413;DHT22;35493;50.276;9.372;2024-02-15T10:26:19;13.10;91.20
49413;DHT22;35493;50.276;9.372;2024-02-15T10:29:09;13.20;90.90
49413;DHT22;35493;50.276;9.372;2024-02-15T10:31:53;13.30;91.00
49413;DHT22;35493;50.276;9.372;2024-02-15T10:34:26;13.30;90.80
49413;DHT22;35493;50.276;9.372;2024-02-15T10:37:09;13.40;90.70
49413;DHT22;35493;50.276;9.372;2024-02-15T10:39:43;13.40;90.40
49413;DHT22;35493;50.276;9.372;2024-02-15T10:42:17;13.50;90.70
49413;DHT22;35493;50.276;9.372;2024-02-15T10:44:45;13.50;90.50
49413;DHT22;35493;50.276;9.372;2024-02-15T10:47:20;13.60;90.30
49413;DHT22;35493;50.276;9.372;2024-02-15T10:49:54;13.60;90.00
49413;DHT22;35493;50.276;9.372;2024-02-15T10:52:28;13.60;89.80
49413;DHT22;35493;50.276;9.372;2024-02-15T10:55:04;13.70;89.80
49413;DHT22;35493;50.276;9.372;2024-02-15T10:57:42;13.70;89.80
49413;DHT22;35493;50.276;9.372;2024-02-15T11:00:17;13.70;89.60
49413;DHT22;35493;50.276;9.372;2024-02-15T11:03:21;13.70;89.60
49413;DHT22;35493;50.276;9.372;2024-02-15T11:05:58;13.70;89.20
49413;DHT22;35493;50.276;9.372;2024-02-15T11:08:33;13.70;89.10
49413;DHT22;35493;50.276;9.372;2024-02-15T11:11:07;13.70;89.40
49413;DHT22;35493;50.276;9.372;2024-02-15T11:13:43;13.70;89.30
49413;DHT22;35493;50.276;9.372;2024-02-15T11:19:08;13.80;88.70
49413;DHT22;35493;50.276;9.372;2024-02-15T11:21:52;13.90;88.70
49413;DHT22;35493;50.276;9.372;2024-02-15T11:24:25;13.90;88.70
49413;DHT22;35493;50.276;9.372;2024-02-15T11:26:59;14.10;88.20
49413;DHT22;35493;50.276;9.372;2024-02-15T11:29:48;14.20;88.00
49413;DHT22;35493;50.276;9.372;2024-02-15T11:32:38;14.20;87.50
49413;DHT22;35493;50.276;9.372;2024-02-15T11:35:14;14.30;87.40
49413;DHT22;35493;50.276;9.372;2024-02-15T11:37:57;14.30;87.00
49413;DHT22;35493;50.276;9.372;2024-02-15T11:46:18;14.40;87.00
49413;DHT22;35493;50.276;9.372;2024-02-15T11:48:52;14.50;87.20
49413;DHT22;35493;50.276;9.372;2024-02-15T11:51:30;14.60;87.00
49413;DHT22;35493;50.276;9.372;2024-02-15T11:54:04;14.70;86.90
49413;DHT22;35493;50.276;9.372;2024-02-15T11:56:51;14.70;86.80
49413;DHT22;35493;50.276;9.372;2024-02-15T11:59:26;14.70;86.70
49413;DHT22;35493;50.276;9.372;2024-02-15T12:02:04;14.70;86.90
49413;DHT22;35493;50.276;9.372;2024-02-15T12:04:55;14.80;86.40
49413;DHT22;35493;50.276;9.372;2024-02-15T12:07:48;14.80;86.50
49413;DHT22;35493;50.276;9.372;2024-02-15T12:10:38;14.80;85.90
49413;DHT22;35493;50.276;9.372;2024-02-15T12:13:29;14.80;85.10
49413;DHT22;35493;50.276;9.372;2024-02-15T12:16:20;14.80;84.20
49413;DHT22;35493;50.276;9.372;2024-02-15T12:19:11;14.80;84.40
49413;DHT22;35493;50.276;9.372;2024-02-15T12:21:44;14.90;84.50
49413;DHT22;35493;50.276;9.372;2024-02-15T12:24:19;14.90;83.30
49413;DHT22;35493;50.276;9.372;2024-02-15T12:26:59;14.90;82.80
49413;DHT22;35493;50.276;9.372;2024-02-15T12:29:32;14.90;83.80
49413;DHT22;35493;50.276;9.372;2024-02-15T12:32:06;14.90;84.50
49413;DHT22;35493;50.276;9.372;2024-02-15T12:34:39;14.90;84.60
49413;DHT22;35493;50.276;9.372;2024-02-15T12:37:12;15.00;83.70
49413;DHT22;35493;50.276;9.372;2024-02-15T12:39:48;15.00;83.70
49413;DHT22;35493;50.276;9.372;2024-02-15T12:42:21;15.00;83.60
49413;DHT22;35493;50.276;9.372;2024-02-15T12:44:54;15.00;83.30
49413;DHT22;35493;50.276;9.372;2024-02-15T12:47:28;15.00;82.90
49413;DHT22;35493;50.276;9.372;2024-02-15T12:50:12;15.10;82.90
49413;DHT22;35493;50.276;9.372;2024-02-15T12:52:46;15.10;82.60
49413;DHT22;35493;50.276;9.372;2024-02-15T12:55:23;15.00;82.60
49413;DHT22;35493;50.276;9.372;2024-02-15T12:57:56;15.00;83.50
49413;DHT22;35493;50.276;9.372;2024-02-15T13:00:30;15.00;83.70
49413;DHT22;35493;50.276;9.372;2024-02-15T13:02:58;15.00;83.60
49413;DHT22;35493;50.276;9.372;2024-02-15T13:05:34;15.00;82.80
49413;DHT22;35493;50.276;9.372;2024-02-15T13:08:08;15.00;81.90
49413;DHT22;35493;50.276;9.372;2024-02-15T13:10:46;15.00;81.80
49413;DHT22;35493;50.276;9.372;2024-02-15T13:13:13;15.00;82.90
49413;DHT22;35493;50.276;9.372;2024-02-15T13:15:47;14.90;83.50
49413;DHT22;35493;50.276;9.372;2024-02-15T13:18:20;14.90;83.10
49413;DHT22;35493;50.276;9.372;2024-02-15T13:20:53;14.90;83.50
49413;DHT22;35493;50.276;9.372;2024-02-15T13:23:27;14.90;82.40
49413;DHT22;35493;50.276;9.372;2024-02-15T13:26:04;14.90;83.10
49413;DHT22;35493;50.276;9.372;2024-02-15T13:28:37;14.90;82.30
49413;DHT22;35493;50.276;9.372;2024-02-15T13:31:10;14.90;82.90
49413;DHT22;35493;50.276;9.372;2024-02-15T13:33:44;14.80;82.60
49413;DHT22;35493;50.276;9.372;2024-02-15T13:36:18;14.80;83.20
49413;DHT22;35493;50.276;9.372;2024-02-15T13:38:51;14.80;82.90
49413;DHT22;35493;50.276;9.372;2024-02-15T13:41:26;14.80;82.90
49413;DHT22;35493;50.276;9.372;2024-02-15T13:43:59;14.70;83.10
49413;DHT22;35493;50.276;9.372;2024-02-15T13:46:32;14.70;83.00
49413;DHT22;35493;50.276;9.372;2024-02-15T13:49:05;14.80;83.70
49413;DHT22;35493;50.276;9.372;2024-02-15T13:51:39;14.70;82.80
49413;DHT22;35493;50.276;9.372;2024-02-15T13:54:12;14.80;83.40
49413;DHT22;35493;50.276;9.372;2024-02-15T13:56:47;14.70;83.20
49413;DHT22;35493;50.276;9.372;2024-02-15T13:59:13;14.70;83.80
49413;DHT22;35493;50.276;9.372;2024-02-15T14:01:46;14.70;83.10
49413;DHT22;35493;50.276;9.372;2024-02-15T14:04:21;14.60;83.00
49413;DHT22;35493;50.276;9.372;2024-02-15T14:06:54;14.70;83.20
49413;DHT22;35493;50.276;9.372;2024-02-15T14:09:28;14.70;83.60
49413;DHT22;35493;50.276;9.372;2024-02-15T14:12:04;14.60;82.80
49413;DHT22;35493;50.276;9.372;2024-02-15T14:14:39;14.60;82.70
49413;DHT22;35493;50.276;9.372;2024-02-15T14:17:12;14.70;82.50
49413;DHT22;35493;50.276;9.372;2024-02-15T14:19:46;14.70;83.50
49413;DHT22;35493;50.276;9.372;2024-02-15T14:22:27;14.70;83.20
49413;DHT22;35493;50.276;9.372;2024-02-15T14:25:42;14.60;82.80
49413;DHT22;35493;50.276;9.372;2024-02-15T14:28:18;14.60;83.20
49413;DHT22;35493;50.276;9.372;2024-02-15T14:30:51;14.70;83.90
49413;DHT22;35493;50.276;9.372;2024-02-15T14:33:42;14.60;83.80
49413;DHT22;35493;50.276;9.372;2024-02-15T14:36:15;14.60;83.00
49413;DHT22;35493;50.276;9.372;2024-02-15T14:38:48;14.60;83.60
49413;DHT22;35493;50.276;9.372;2024-02-15T14:41:28;14.60;83.10
49413;DHT22;35493;50.276;9.372;2024-02-15T14:44:04;14.60;84.00
49413;DHT22;35493;50.276;9.372;2024-02-15T14:46:39;14.60;83.80
49413;DHT22;35493;50.276;9.372;2024-02-15T14:49:18;14.60;83.80
49413;DHT22;35493;50.276;9.372;2024-02-15T14:52:03;14.60;84.20
49413;DHT22;35493;50.276;9.372;2024-02-15T14:54:37;14.60;83.80
49413;DHT22;35493;50.276;9.372;2024-02-15T14:57:11;14.60;84.40
49413;DHT22;35493;50.276;9.372;2024-02-15T14:59:46;14.60;84.40
49413;DHT22;35493;50.276;9.372;2024-02-15T15:02:19;14.60;84.50
49413;DHT22;35493;50.276;9.372;2024-02-15T15:04:52;14.60;84.30
49413;DHT22;35493;50.276;9.372;2024-02-15T15:07:50;14.60;84.10
49413;DHT22;35493;50.276;9.372;2024-02-15T15:10:41;14.60;84.50
49413;DHT22;35493;50.276;9.372;2024-02-15T15:13:33;14.60;84.30
49413;DHT22;35493;50.276;9.372;2024-02-15T15:16:08;14.60;84.20
49413;DHT22;35493;50.276;9.372;2024-02-15T15:18:46;14.60;84.60
49413;DHT22;35493;50.276;9.372;2024-02-15T15:21:19;14.60;84.50
49413;DHT22;35493;50.276;9.372;2024-02-15T15:23:52;14.50;84.10
49413;DHT22;35493;50.276;9.372;2024-02-15T15:26:25;14.60;84.50
49413;DHT22;35493;50.276;9.372;2024-02-15T15:28:58;14.50;83.80
49413;DHT22;35493;50.276;9.372;2024-02-15T15:31:33;14.40;84.10
49413;DHT22;35493;50.276;9.372;2024-02-15T15:34:00;14.40;84.20
49413;DHT22;35493;50.276;9.372;2024-02-15T15:36:33;14.40;84.30
49413;DHT22;35493;50.276;9.372;2024-02-15T15:39:06;14.30;84.20
49413;DHT22;35493;50.276;9.372;2024-02-15T15:41:43;14.30;84.30
49413;DHT22;35493;50.276;9.372;2024-02-15T15:44:16;14.20;84.40
49413;DHT22;35493;50.276;9.372;2024-02-15T15:46:51;14.20;84.40
49413;DHT22;35493;50.276;9.372;2024-02-15T15:49:24;14.10;84.60
49413;DHT22;35493;50.276;9.372;2024-02-15T15:51:58;14.10;84.50
49413;DHT22;35493;50.276;9.372;2024-02-15T15:54:50;14.00;84.30
49413;DHT22;35493;50.276;9.372;2024-02-15T15:57:43;14.00;84.40
49413;DHT22;35493;50.276;9.372;2024-02-15T16:00:19;13.90;84.30
49413;DHT22;35493;50.276;9.372;2024-02-15T16:02:54;13.90;84.50
49413;DHT22;35493;50.276;9.372;2024-02-15T16:05:27;13.90;84.80
49413;DHT22;35493;50.276;9.372;2024-02-15T16:07:54;13.80;84.70
49413;DHT22;35493;50.276;9.372;2024-02-15T16:10:27;13.70;84.70
49413;DHT22;35493;50.276;9.372;2024-02-15T16:13:00;13.70;85.00
49413;DHT22;35493;50.276;9.372;2024-02-15T16:15:40;13.60;85.30
49413;DHT22;35493;50.276;9.372;2024-02-15T16:18:19;13.60;85.40
49413;DHT22;35493;50.276;9.372;2024-02-15T16:20:52;13.50;85.70
49413;DHT22;35493;50.276;9.372;2024-02-15T16:23:26;13.40;86.00
49413;DHT22;35493;50.276;9.372;2024-02-15T16:25:59;13.40;86.00
49413;DHT22;35493;50.276;9.372;2024-02-15T16:28:33;13.30;86.30
49413;DHT22;35493;50.276;9.372;2024-02-15T16:31:09;13.20;86.40
49413;DHT22;35493;50.276;9.372;2024-02-15T16:33:44;13.20;86.40
49413;DHT22;35493;50.276;9.372;2024-02-15T16:36:16;13.20;86.80
49413;DHT22;35493;50.276;9.372;2024-02-15T16:38:50;13.10;87.00
49413;DHT22;35493;50.276;9.372;2024-02-15T16:41:22;13.10;87.10